sensor_id;sensor_type;location;lat;lon;timestamp;P1;durP1;ratioP1;P2;durP2;ratioP2
7587;SDS011;3835;48.850;8.938;2022-08-19T00:01:35;17.93;;;16.67;;
7587;SDS011;3835;48.850;8.938;2022-08-19T00:04:05;16.20;;;15.30;;
7587;SDS011;3835;48.850;8.938;2022-08-19T00:06:34;18.53;;;17.47;;
7587;SDS011;3835;48.850;8.938;2022-08-19T00:09:02;17.60;;;16.67;;
7587;SDS011;3835;48.850;8.938;2022-08-19T00:11:30;22.50;;;21.30;;
7587;SDS011;3835;48.850;8.938;2022-08-19T00:13:58;18.70;;;17.70;;
7587;SDS011;3835;48.850;8.938;2022-08-19T00:16:25;21.90;;;20.67;;
7587;SDS011;3835;48.850;8.938;2022-08-19T00:18:53;20.97;;;19.73;;
7587;SDS011;3835;48.850;8.938;2022-08-19T00:21:23;27.23;;;25.43;;
7587;SDS011;3835;48.850;8.938;2022-08-19T00:23:51;20.43;;;19.30;;
7587;SDS011;3835;48.850;8.938;2022-08-19T00:26:18;20.43;;;19.30;;
7587;SDS011;3835;48.850;8.938;2022-08-19T00:28:46;21.33;;;20.13;;
7587;SDS011;3835;48.850;8.938;2022-08-19T00:31:13;24.47;;;23.27;;
7587;SDS011;3835;48.850;8.938;2022-08-19T00:33:41;26.93;;;25.53;;
7587;SDS011;3835;48.850;8.938;2022-08-19T00:36:08;22.40;;;21.20;;
7587;SDS011;3835;48.850;8.938;2022-08-19T00:38:38;26.90;;;25.13;;
7587;SDS011;3835;48.850;8.938;2022-08-19T00:41:06;22.93;;;21.73;;
7587;SDS011;3835;48.850;8.938;2022-08-19T00:43:33;35.80;;;33.20;;
7587;SDS011;3835;48.850;8.938;2022-08-19T00:46:00;21.03;;;20.03;;
7587;SDS011;3835;48.850;8.938;2022-08-19T00:48:29;16.83;;;15.73;;
7587;SDS011;3835;48.850;8.938;2022-08-19T00:50:57;20.13;;;18.70;;
7587;SDS011;3835;48.850;8.938;2022-08-19T00:53:26;30.03;;;28.33;;
7587;SDS011;3835;48.850;8.938;2022-08-19T00:55:58;16.93;;;15.63;;
7587;SDS011;3835;48.850;8.938;2022-08-19T00:58:26;20.07;;;18.87;;
7587;SDS011;3835;48.850;8.938;2022-08-19T01:00:56;30.40;;;28.77;;
7587;SDS011;3835;48.850;8.938;2022-08-19T01:03:22;27.23;;;25.53;;
7587;SDS011;3835;48.850;8.938;2022-08-19T01:05:50;23.73;;;22.43;;
7587;SDS011;3835;48.850;8.938;2022-08-19T01:08:20;24.07;;;22.67;;
7587;SDS011;3835;48.850;8.938;2022-08-19T01:10:49;20.57;;;19.23;;
7587;SDS011;3835;48.850;8.938;2022-08-19T01:13:20;19.73;;;18.63;;
7587;SDS011;3835;48.850;8.938;2022-08-19T01:15:51;17.17;;;15.83;;
7587;SDS011;3835;48.850;8.938;2022-08-19T01:18:21;17.27;;;16.07;;
7587;SDS011;3835;48.850;8.938;2022-08-19T01:20:48;25.83;;;24.27;;
7587;SDS011;3835;48.850;8.938;2022-08-19T01:23:16;30.37;;;28.77;;
7587;SDS011;3835;48.850;8.938;2022-08-19T01:25:46;24.43;;;22.93;;
7587;SDS011;3835;48.850;8.938;2022-08-19T01:28:16;19.60;;;18.27;;
7587;SDS011;3835;48.850;8.938;2022-08-19T01:30:45;18.50;;;17.27;;
7587;SDS011;3835;48.850;8.938;2022-08-19T01:33:12;21.33;;;20.03;;
7587;SDS011;3835;48.850;8.938;2022-08-19T01:35:40;25.40;;;24.00;;
7587;SDS011;3835;48.850;8.938;2022-08-19T01:38:08;17.33;;;16.27;;
7587;SDS011;3835;48.850;8.938;2022-08-19T01:40:46;17.73;;;16.43;;
7587;SDS011;3835;48.850;8.938;2022-08-19T01:43:13;22.07;;;20.70;;
7587;SDS011;3835;48.850;8.938;2022-08-19T01:45:40;32.27;;;30.23;;
7587;SDS011;3835;48.850;8.938;2022-08-19T01:48:07;29.27;;;27.33;;
7587;SDS011;3835;48.850;8.938;2022-08-19T01:50:35;22.80;;;21.50;;
7587;SDS011;3835;48.850;8.938;2022-08-19T01:53:02;16.37;;;15.17;;
7587;SDS011;3835;48.850;8.938;2022-08-19T01:55:33;17.73;;;16.53;;
7587;SDS011;3835;48.850;8.938;2022-08-19T01:58:03;24.77;;;23.37;;
7587;SDS011;3835;48.850;8.938;2022-08-19T02:00:32;16.00;;;14.90;;
7587;SDS011;3835;48.850;8.938;2022-08-19T02:02:59;27.57;;;25.97;;
7587;SDS011;3835;48.850;8.938;2022-08-19T02:05:26;21.47;;;20.00;;
7587;SDS011;3835;48.850;8.938;2022-08-19T02:07:54;29.50;;;27.73;;
7587;SDS011;3835;48.850;8.938;2022-08-19T02:10:21;26.07;;;24.57;;
7587;SDS011;3835;48.850;8.938;2022-08-19T02:12:49;21.67;;;20.30;;
7587;SDS011;3835;48.850;8.938;2022-08-19T02:15:18;18.83;;;17.40;;
7587;SDS011;3835;48.850;8.938;2022-08-19T02:17:45;21.10;;;19.73;;
7587;SDS011;3835;48.850;8.938;2022-08-19T02:20:13;30.30;;;28.37;;
7587;SDS011;3835;48.850;8.938;2022-08-19T02:22:41;25.93;;;24.30;;
7587;SDS011;3835;48.850;8.938;2022-08-19T02:25:09;20.93;;;19.43;;
7587;SDS011;3835;48.850;8.938;2022-08-19T02:27:36;15.27;;;13.90;;
7587;SDS011;3835;48.850;8.938;2022-08-19T02:30:03;17.10;;;15.97;;
7587;SDS011;3835;48.850;8.938;2022-08-19T02:32:33;29.03;;;27.43;;
7587;SDS011;3835;48.850;8.938;2022-08-19T02:35:00;34.80;;;32.80;;
7587;SDS011;3835;48.850;8.938;2022-08-19T02:37:27;28.73;;;27.13;;
7587;SDS011;3835;48.850;8.938;2022-08-19T02:40:11;28.17;;;26.30;;
7587;SDS011;3835;48.850;8.938;2022-08-19T02:42:38;17.13;;;15.80;;
7587;SDS011;3835;48.850;8.938;2022-08-19T02:45:06;18.57;;;17.47;;
7587;SDS011;3835;48.850;8.938;2022-08-19T02:47:35;33.63;;;31.47;;
7587;SDS011;3835;48.850;8.938;2022-08-19T02:50:02;44.33;;;42.00;;
7587;SDS011;3835;48.850;8.938;2022-08-19T02:52:31;21.10;;;19.73;;
7587;SDS011;3835;48.850;8.938;2022-08-19T02:54:58;16.77;;;15.60;;
7587;SDS011;3835;48.850;8.938;2022-08-19T02:57:26;17.70;;;16.47;;
7587;SDS011;3835;48.850;8.938;2022-08-19T02:59:53;25.70;;;23.93;;
7587;SDS011;3835;48.850;8.938;2022-08-19T03:02:20;17.37;;;16.20;;
7587;SDS011;3835;48.850;8.938;2022-08-19T03:04:48;17.23;;;15.93;;
7587;SDS011;3835;48.850;8.938;2022-08-19T03:07:16;17.33;;;16.17;;
7587;SDS011;3835;48.850;8.938;2022-08-19T03:09:43;21.43;;;19.67;;
7587;SDS011;3835;48.850;8.938;2022-08-19T03:12:10;18.70;;;17.57;;
7587;SDS011;3835;48.850;8.938;2022-08-19T03:14:37;16.00;;;14.80;;
7587;SDS011;3835;48.850;8.938;2022-08-19T03:17:04;14.10;;;13.20;;
7587;SDS011;3835;48.850;8.938;2022-08-19T03:19:31;17.20;;;16.07;;
7587;SDS011;3835;48.850;8.938;2022-08-19T03:21:59;16.23;;;14.93;;
7587;SDS011;3835;48.850;8.938;2022-08-19T03:24:28;17.93;;;16.33;;
7587;SDS011;3835;48.850;8.938;2022-08-19T03:26:55;24.00;;;22.50;;
7587;SDS011;3835;48.850;8.938;2022-08-19T03:29:23;32.17;;;30.53;;
7587;SDS011;3835;48.850;8.938;2022-08-19T03:31:51;24.00;;;22.47;;
7587;SDS011;3835;48.850;8.938;2022-08-19T03:34:20;17.63;;;16.23;;
7587;SDS011;3835;48.850;8.938;2022-08-19T03:36:51;19.07;;;17.60;;
7587;SDS011;3835;48.850;8.938;2022-08-19T03:39:20;17.20;;;16.03;;
7587;SDS011;3835;48.850;8.938;2022-08-19T03:41:47;17.37;;;15.73;;
7587;SDS011;3835;48.850;8.938;2022-08-19T03:44:16;16.30;;;15.00;;
7587;SDS011;3835;48.850;8.938;2022-08-19T03:46:46;16.60;;;15.30;;
7587;SDS011;3835;48.850;8.938;2022-08-19T03:49:13;18.57;;;17.37;;
7587;SDS011;3835;48.850;8.938;2022-08-19T03:51:41;19.30;;;17.83;;
7587;SDS011;3835;48.850;8.938;2022-08-19T03:54:10;26.80;;;25.30;;
7587;SDS011;3835;48.850;8.938;2022-08-19T03:56:41;16.97;;;15.53;;
7587;SDS011;3835;48.850;8.938;2022-08-19T03:59:10;15.23;;;14.03;;
7587;SDS011;3835;48.850;8.938;2022-08-19T04:01:39;18.03;;;16.53;;
7587;SDS011;3835;48.850;8.938;2022-08-19T04:04:07;17.07;;;15.77;;
7587;SDS011;3835;48.850;8.938;2022-08-19T04:06:35;19.40;;;17.93;;
7587;SDS011;3835;48.850;8.938;2022-08-19T04:09:05;16.13;;;15.03;;
7587;SDS011;3835;48.850;8.938;2022-08-19T04:11:35;16.60;;;15.57;;
7587;SDS011;3835;48.850;8.938;2022-08-19T04:14:08;18.50;;;17.17;;
7587;SDS011;3835;48.850;8.938;2022-08-19T04:16:36;23.70;;;21.97;;
7587;SDS011;3835;48.850;8.938;2022-08-19T04:19:04;29.37;;;27.53;;
7587;SDS011;3835;48.850;8.938;2022-08-19T04:21:32;29.97;;;27.90;;
7587;SDS011;3835;48.850;8.938;2022-08-19T04:23:59;24.17;;;22.53;;
7587;SDS011;3835;48.850;8.938;2022-08-19T04:26:27;19.80;;;18.13;;
7587;SDS011;3835;48.850;8.938;2022-08-19T04:28:57;15.60;;;14.43;;
7587;SDS011;3835;48.850;8.938;2022-08-19T04:31:27;21.87;;;20.43;;
7587;SDS011;3835;48.850;8.938;2022-08-19T04:33:55;27.70;;;26.03;;
7587;SDS011;3835;48.850;8.938;2022-08-19T04:36:24;22.50;;;20.97;;
7587;SDS011;3835;48.850;8.938;2022-08-19T04:38:53;21.50;;;19.87;;
7587;SDS011;3835;48.850;8.938;2022-08-19T04:41:21;16.97;;;15.80;;
7587;SDS011;3835;48.850;8.938;2022-08-19T04:44:06;18.87;;;17.33;;
7587;SDS011;3835;48.850;8.938;2022-08-19T04:46:35;19.13;;;17.40;;
7587;SDS011;3835;48.850;8.938;2022-08-19T04:49:03;16.97;;;15.30;;
7587;SDS011;3835;48.850;8.938;2022-08-19T04:51:31;17.90;;;16.70;;
7587;SDS011;3835;48.850;8.938;2022-08-19T04:53:58;21.53;;;19.60;;
7587;SDS011;3835;48.850;8.938;2022-08-19T04:56:26;23.13;;;21.63;;
7587;SDS011;3835;48.850;8.938;2022-08-19T04:58:54;25.60;;;23.63;;
7587;SDS011;3835;48.850;8.938;2022-08-19T05:01:22;19.57;;;18.37;;
7587;SDS011;3835;48.850;8.938;2022-08-19T05:03:52;22.37;;;21.00;;
7587;SDS011;3835;48.850;8.938;2022-08-19T05:06:19;18.63;;;17.37;;
7587;SDS011;3835;48.850;8.938;2022-08-19T05:08:47;18.87;;;17.47;;
7587;SDS011;3835;48.850;8.938;2022-08-19T05:11:16;18.70;;;17.57;;
7587;SDS011;3835;48.850;8.938;2022-08-19T05:13:45;23.67;;;22.07;;
7587;SDS011;3835;48.850;8.938;2022-08-19T05:16:13;26.20;;;24.73;;
7587;SDS011;3835;48.850;8.938;2022-08-19T05:18:42;28.33;;;26.53;;
7587;SDS011;3835;48.850;8.938;2022-08-19T05:21:28;30.50;;;28.27;;
7587;SDS011;3835;48.850;8.938;2022-08-19T05:24:14;31.87;;;29.97;;
7587;SDS011;3835;48.850;8.938;2022-08-19T05:26:43;16.70;;;15.50;;
7587;SDS011;3835;48.850;8.938;2022-08-19T05:29:13;45.67;;;43.40;;
7587;SDS011;3835;48.850;8.938;2022-08-19T05:31:40;78.10;;;74.50;;
7587;SDS011;3835;48.850;8.938;2022-08-19T05:34:08;18.83;;;17.43;;
7587;SDS011;3835;48.850;8.938;2022-08-19T05:36:37;23.20;;;21.47;;
7587;SDS011;3835;48.850;8.938;2022-08-19T05:39:06;16.63;;;15.43;;
7587;SDS011;3835;48.850;8.938;2022-08-19T05:41:34;18.73;;;17.40;;
7587;SDS011;3835;48.850;8.938;2022-08-19T05:44:03;24.33;;;22.80;;
7587;SDS011;3835;48.850;8.938;2022-08-19T05:46:34;21.80;;;20.57;;
7587;SDS011;3835;48.850;8.938;2022-08-19T05:49:02;20.20;;;18.70;;
7587;SDS011;3835;48.850;8.938;2022-08-19T05:51:30;16.90;;;15.80;;
7587;SDS011;3835;48.850;8.938;2022-08-19T05:53:59;17.63;;;16.37;;
7587;SDS011;3835;48.850;8.938;2022-08-19T05:56:26;26.50;;;24.60;;
7587;SDS011;3835;48.850;8.938;2022-08-19T05:58:55;24.23;;;22.63;;
7587;SDS011;3835;48.850;8.938;2022-08-19T06:01:24;24.53;;;22.73;;
7587;SDS011;3835;48.850;8.938;2022-08-19T06:03:51;23.40;;;21.77;;
7587;SDS011;3835;48.850;8.938;2022-08-19T06:06:19;26.40;;;24.57;;
7587;SDS011;3835;48.850;8.938;2022-08-19T06:08:46;26.27;;;24.33;;
7587;SDS011;3835;48.850;8.938;2022-08-19T06:11:17;24.50;;;23.00;;
7587;SDS011;3835;48.850;8.938;2022-08-19T06:13:46;36.00;;;33.87;;
7587;SDS011;3835;48.850;8.938;2022-08-19T06:16:16;36.03;;;34.07;;
7587;SDS011;3835;48.850;8.938;2022-08-19T06:18:47;33.20;;;31.50;;
7587;SDS011;3835;48.850;8.938;2022-08-19T06:21:16;37.83;;;35.90;;
7587;SDS011;3835;48.850;8.938;2022-08-19T06:23:44;39.03;;;36.70;;
7587;SDS011;3835;48.850;8.938;2022-08-19T06:26:12;44.57;;;42.27;;
7587;SDS011;3835;48.850;8.938;2022-08-19T06:28:40;39.53;;;37.50;;
7587;SDS011;3835;48.850;8.938;2022-08-19T06:31:11;47.23;;;44.93;;
7587;SDS011;3835;48.850;8.938;2022-08-19T06:33:39;45.30;;;43.10;;
7587;SDS011;3835;48.850;8.938;2022-08-19T06:36:07;34.03;;;31.97;;
7587;SDS011;3835;48.850;8.938;2022-08-19T06:38:41;22.77;;;21.33;;
7587;SDS011;3835;48.850;8.938;2022-08-19T06:41:08;20.77;;;19.27;;
7587;SDS011;3835;48.850;8.938;2022-08-19T06:43:35;20.13;;;18.83;;
7587;SDS011;3835;48.850;8.938;2022-08-19T06:46:04;23.17;;;21.97;;
7587;SDS011;3835;48.850;8.938;2022-08-19T06:48:37;26.60;;;25.10;;
7587;SDS011;3835;48.850;8.938;2022-08-19T06:51:04;34.70;;;32.93;;
7587;SDS011;3835;48.850;8.938;2022-08-19T06:53:31;38.40;;;36.50;;
7587;SDS011;3835;48.850;8.938;2022-08-19T06:55:58;36.60;;;34.83;;
7587;SDS011;3835;48.850;8.938;2022-08-19T06:58:27;18.80;;;17.80;;
7587;SDS011;3835;48.850;8.938;2022-08-19T07:00:57;27.53;;;25.80;;
7587;SDS011;3835;48.850;8.938;2022-08-19T07:03:27;22.43;;;20.97;;
7587;SDS011;3835;48.850;8.938;2022-08-19T07:05:55;19.30;;;17.67;;
7587;SDS011;3835;48.850;8.938;2022-08-19T07:08:22;23.97;;;22.43;;
7587;SDS011;3835;48.850;8.938;2022-08-19T07:10:52;17.03;;;16.10;;
7587;SDS011;3835;48.850;8.938;2022-08-19T07:13:19;19.03;;;17.77;;
7587;SDS011;3835;48.850;8.938;2022-08-19T07:15:47;19.07;;;17.27;;
7587;SDS011;3835;48.850;8.938;2022-08-19T07:18:15;18.80;;;17.40;;
7587;SDS011;3835;48.850;8.938;2022-08-19T07:20:44;18.23;;;17.03;;
7587;SDS011;3835;48.850;8.938;2022-08-19T07:23:11;18.63;;;17.13;;
7587;SDS011;3835;48.850;8.938;2022-08-19T07:25:38;18.63;;;17.00;;
7587;SDS011;3835;48.850;8.938;2022-08-19T07:28:05;30.93;;;29.33;;
7587;SDS011;3835;48.850;8.938;2022-08-19T07:30:36;18.07;;;16.70;;
7587;SDS011;3835;48.850;8.938;2022-08-19T07:33:03;15.70;;;14.80;;
7587;SDS011;3835;48.850;8.938;2022-08-19T07:35:31;16.73;;;15.43;;
7587;SDS011;3835;48.850;8.938;2022-08-19T07:40:30;16.73;;;15.53;;
7587;SDS011;3835;48.850;8.938;2022-08-19T07:42:57;16.77;;;15.47;;
7587;SDS011;3835;48.850;8.938;2022-08-19T07:45:24;16.90;;;15.63;;
7587;SDS011;3835;48.850;8.938;2022-08-19T07:47:52;24.73;;;22.93;;
7587;SDS011;3835;48.850;8.938;2022-08-19T07:50:19;22.30;;;21.00;;
7587;SDS011;3835;48.850;8.938;2022-08-19T07:52:48;17.93;;;16.87;;
7587;SDS011;3835;48.850;8.938;2022-08-19T07:55:17;17.87;;;16.67;;
7587;SDS011;3835;48.850;8.938;2022-08-19T07:57:45;15.87;;;14.80;;
7587;SDS011;3835;48.850;8.938;2022-08-19T08:00:13;15.77;;;14.57;;
7587;SDS011;3835;48.850;8.938;2022-08-19T08:02:40;17.33;;;16.23;;
7587;SDS011;3835;48.850;8.938;2022-08-19T08:05:08;17.93;;;16.83;;
7587;SDS011;3835;48.850;8.938;2022-08-19T08:07:52;18.93;;;17.73;;
7587;SDS011;3835;48.850;8.938;2022-08-19T08:10:38;20.37;;;19.17;;
7587;SDS011;3835;48.850;8.938;2022-08-19T08:13:05;24.17;;;22.70;;
7587;SDS011;3835;48.850;8.938;2022-08-19T08:15:32;22.90;;;21.53;;
7587;SDS011;3835;48.850;8.938;2022-08-19T08:17:58;18.50;;;17.43;;
7587;SDS011;3835;48.850;8.938;2022-08-19T08:20:25;24.53;;;22.83;;
7587;SDS011;3835;48.850;8.938;2022-08-19T08:22:52;20.77;;;19.40;;
7587;SDS011;3835;48.850;8.938;2022-08-19T08:25:37;24.70;;;23.50;;
7587;SDS011;3835;48.850;8.938;2022-08-19T08:28:04;25.70;;;24.30;;
7587;SDS011;3835;48.850;8.938;2022-08-19T08:30:34;17.37;;;16.33;;
7587;SDS011;3835;48.850;8.938;2022-08-19T08:33:02;16.43;;;15.43;;
7587;SDS011;3835;48.850;8.938;2022-08-19T08:35:29;16.80;;;15.90;;
7587;SDS011;3835;48.850;8.938;2022-08-19T08:37:56;15.50;;;14.50;;
7587;SDS011;3835;48.850;8.938;2022-08-19T08:40:26;18.40;;;17.37;;
7587;SDS011;3835;48.850;8.938;2022-08-19T08:42:57;15.77;;;14.93;;
7587;SDS011;3835;48.850;8.938;2022-08-19T08:45:30;28.23;;;26.40;;
7587;SDS011;3835;48.850;8.938;2022-08-19T08:48:00;22.80;;;21.50;;
7587;SDS011;3835;48.850;8.938;2022-08-19T08:50:32;15.17;;;14.20;;
7587;SDS011;3835;48.850;8.938;2022-08-19T08:53:02;16.03;;;14.87;;
7587;SDS011;3835;48.850;8.938;2022-08-19T08:55:32;13.37;;;12.47;;
7587;SDS011;3835;48.850;8.938;2022-08-19T08:58:02;16.07;;;14.77;;
7587;SDS011;3835;48.850;8.938;2022-08-19T09:00:32;15.37;;;14.23;;
7587;SDS011;3835;48.850;8.938;2022-08-19T09:03:02;15.97;;;14.80;;
7587;SDS011;3835;48.850;8.938;2022-08-19T09:05:34;17.43;;;16.23;;
7587;SDS011;3835;48.850;8.938;2022-08-19T09:08:08;20.23;;;19.13;;
7587;SDS011;3835;48.850;8.938;2022-08-19T09:10:44;20.00;;;18.90;;
7587;SDS011;3835;48.850;8.938;2022-08-19T09:13:19;18.80;;;17.77;;
7587;SDS011;3835;48.850;8.938;2022-08-19T09:15:55;16.57;;;15.47;;
7587;SDS011;3835;48.850;8.938;2022-08-19T09:18:26;19.87;;;18.47;;
7587;SDS011;3835;48.850;8.938;2022-08-19T09:21:05;15.30;;;14.20;;
7587;SDS011;3835;48.850;8.938;2022-08-19T09:23:32;13.97;;;13.07;;
7587;SDS011;3835;48.850;8.938;2022-08-19T09:25:59;15.80;;;14.87;;
7587;SDS011;3835;48.850;8.938;2022-08-19T09:28:27;14.50;;;13.60;;
7587;SDS011;3835;48.850;8.938;2022-08-19T09:30:54;14.50;;;13.53;;
7587;SDS011;3835;48.850;8.938;2022-08-19T09:33:21;15.70;;;14.70;;
7587;SDS011;3835;48.850;8.938;2022-08-19T09:35:48;14.50;;;13.63;;
7587;SDS011;3835;48.850;8.938;2022-08-19T09:38:14;14.33;;;13.33;;
7587;SDS011;3835;48.850;8.938;2022-08-19T09:40:41;16.97;;;15.87;;
7587;SDS011;3835;48.850;8.938;2022-08-19T09:43:08;14.17;;;13.47;;
7587;SDS011;3835;48.850;8.938;2022-08-19T09:48:07;14.30;;;13.30;;
7587;SDS011;3835;48.850;8.938;2022-08-19T09:50:34;15.30;;;14.20;;
7587;SDS011;3835;48.850;8.938;2022-08-19T09:53:03;18.03;;;17.10;;
7587;SDS011;3835;48.850;8.938;2022-08-19T09:55:31;15.00;;;14.00;;
7587;SDS011;3835;48.850;8.938;2022-08-19T09:57:58;18.87;;;17.87;;
7587;SDS011;3835;48.850;8.938;2022-08-19T10:00:26;14.27;;;13.37;;
7587;SDS011;3835;48.850;8.938;2022-08-19T10:02:53;13.57;;;12.87;;
7587;SDS011;3835;48.850;8.938;2022-08-19T10:05:21;15.53;;;14.63;;
7587;SDS011;3835;48.850;8.938;2022-08-19T10:08:05;16.60;;;15.73;;
7587;SDS011;3835;48.850;8.938;2022-08-19T10:10:34;17.07;;;16.10;;
7587;SDS011;3835;48.850;8.938;2022-08-19T10:13:01;14.13;;;13.33;;
7587;SDS011;3835;48.850;8.938;2022-08-19T10:15:29;13.43;;;12.73;;
7587;SDS011;3835;48.850;8.938;2022-08-19T10:17:55;18.20;;;17.30;;
7587;SDS011;3835;48.850;8.938;2022-08-19T10:20:26;13.90;;;13.20;;
7587;SDS011;3835;48.850;8.938;2022-08-19T10:22:54;12.90;;;12.23;;
7587;SDS011;3835;48.850;8.938;2022-08-19T10:25:21;13.60;;;12.80;;
7587;SDS011;3835;48.850;8.938;2022-08-19T10:27:48;13.60;;;12.90;;
7587;SDS011;3835;48.850;8.938;2022-08-19T10:30:14;14.13;;;13.43;;
7587;SDS011;3835;48.850;8.938;2022-08-19T10:32:41;17.10;;;16.20;;
7587;SDS011;3835;48.850;8.938;2022-08-19T10:35:09;16.03;;;15.23;;
7587;SDS011;3835;48.850;8.938;2022-08-19T10:37:37;17.77;;;16.87;;
7587;SDS011;3835;48.850;8.938;2022-08-19T10:40:05;16.43;;;15.30;;
7587;SDS011;3835;48.850;8.938;2022-08-19T10:42:35;13.57;;;12.87;;
7587;SDS011;3835;48.850;8.938;2022-08-19T10:45:03;15.03;;;14.30;;
7587;SDS011;3835;48.850;8.938;2022-08-19T10:47:31;14.63;;;13.87;;
7587;SDS011;3835;48.850;8.938;2022-08-19T10:49:58;13.67;;;12.80;;
7587;SDS011;3835;48.850;8.938;2022-08-19T10:52:45;13.97;;;13.13;;
7587;SDS011;3835;48.850;8.938;2022-08-19T10:55:13;24.67;;;23.47;;
7587;SDS011;3835;48.850;8.938;2022-08-19T10:57:57;15.60;;;14.80;;
7587;SDS011;3835;48.850;8.938;2022-08-19T11:00:24;20.53;;;19.30;;
7587;SDS011;3835;48.850;8.938;2022-08-19T11:02:51;12.33;;;11.63;;
7587;SDS011;3835;48.850;8.938;2022-08-19T11:05:18;12.70;;;12.00;;
7587;SDS011;3835;48.850;8.938;2022-08-19T11:07:48;13.60;;;12.70;;
7587;SDS011;3835;48.850;8.938;2022-08-19T11:10:15;15.70;;;15.00;;
7587;SDS011;3835;48.850;8.938;2022-08-19T11:12:44;13.67;;;12.87;;
7587;SDS011;3835;48.850;8.938;2022-08-19T11:15:12;14.20;;;13.47;;
7587;SDS011;3835;48.850;8.938;2022-08-19T11:17:39;12.83;;;11.93;;
7587;SDS011;3835;48.850;8.938;2022-08-19T11:20:08;12.33;;;11.50;;
7587;SDS011;3835;48.850;8.938;2022-08-19T11:22:37;13.07;;;12.43;;
7587;SDS011;3835;48.850;8.938;2022-08-19T11:25:06;17.60;;;16.80;;
7587;SDS011;3835;48.850;8.938;2022-08-19T11:27:36;15.37;;;14.57;;
7587;SDS011;3835;48.850;8.938;2022-08-19T11:30:06;13.80;;;13.17;;
7587;SDS011;3835;48.850;8.938;2022-08-19T11:32:34;14.70;;;14.00;;
7587;SDS011;3835;48.850;8.938;2022-08-19T11:35:01;11.03;;;10.53;;
7587;SDS011;3835;48.850;8.938;2022-08-19T11:37:28;12.97;;;12.37;;
7587;SDS011;3835;48.850;8.938;2022-08-19T11:39:55;16.20;;;15.47;;
7587;SDS011;3835;48.850;8.938;2022-08-19T11:42:23;13.23;;;12.53;;
7587;SDS011;3835;48.850;8.938;2022-08-19T11:45:08;16.23;;;15.43;;
7587;SDS011;3835;48.850;8.938;2022-08-19T11:47:35;19.10;;;18.23;;
7587;SDS011;3835;48.850;8.938;2022-08-19T11:50:04;14.73;;;13.93;;
7587;SDS011;3835;48.850;8.938;2022-08-19T11:52:31;12.60;;;12.00;;
7587;SDS011;3835;48.850;8.938;2022-08-19T11:54:58;14.37;;;13.67;;
7587;SDS011;3835;48.850;8.938;2022-08-19T11:57:26;18.47;;;17.47;;
7587;SDS011;3835;48.850;8.938;2022-08-19T11:59:54;14.53;;;13.93;;
7587;SDS011;3835;48.850;8.938;2022-08-19T12:02:21;16.87;;;16.07;;
7587;SDS011;3835;48.850;8.938;2022-08-19T12:04:48;12.63;;;12.13;;
7587;SDS011;3835;48.850;8.938;2022-08-19T12:07:15;11.87;;;11.37;;
7587;SDS011;3835;48.850;8.938;2022-08-19T12:09:42;12.00;;;11.40;;
7587;SDS011;3835;48.850;8.938;2022-08-19T12:12:09;12.80;;;12.10;;
7587;SDS011;3835;48.850;8.938;2022-08-19T12:14:37;12.80;;;12.20;;
7587;SDS011;3835;48.850;8.938;2022-08-19T12:17:04;13.03;;;12.17;;
7587;SDS011;3835;48.850;8.938;2022-08-19T12:19:32;11.97;;;11.37;;
7587;SDS011;3835;48.850;8.938;2022-08-19T12:22:00;11.03;;;10.53;;
7587;SDS011;3835;48.850;8.938;2022-08-19T12:24:30;11.67;;;11.07;;
7587;SDS011;3835;48.850;8.938;2022-08-19T12:26:57;11.97;;;11.37;;
7587;SDS011;3835;48.850;8.938;2022-08-19T12:29:26;11.40;;;10.87;;
7587;SDS011;3835;48.850;8.938;2022-08-19T12:32:02;11.97;;;11.37;;
7587;SDS011;3835;48.850;8.938;2022-08-19T12:34:29;13.33;;;12.63;;
7587;SDS011;3835;48.850;8.938;2022-08-19T12:36:57;11.63;;;11.10;;
7587;SDS011;3835;48.850;8.938;2022-08-19T12:39:25;11.43;;;10.83;;
7587;SDS011;3835;48.850;8.938;2022-08-19T12:41:52;13.13;;;12.53;;
7587;SDS011;3835;48.850;8.938;2022-08-19T12:44:19;11.00;;;10.40;;
7587;SDS011;3835;48.850;8.938;2022-08-19T12:46:46;14.20;;;13.53;;
7587;SDS011;3835;48.850;8.938;2022-08-19T12:49:15;14.00;;;13.40;;
7587;SDS011;3835;48.850;8.938;2022-08-19T12:51:42;11.70;;;11.07;;
7587;SDS011;3835;48.850;8.938;2022-08-19T12:54:09;12.23;;;11.63;;
7587;SDS011;3835;48.850;8.938;2022-08-19T12:56:36;12.13;;;11.53;;
7587;SDS011;3835;48.850;8.938;2022-08-19T12:59:03;10.90;;;10.40;;
7587;SDS011;3835;48.850;8.938;2022-08-19T13:01:31;12.73;;;12.13;;
7587;SDS011;3835;48.850;8.938;2022-08-19T13:03:58;11.13;;;10.63;;
7587;SDS011;3835;48.850;8.938;2022-08-19T13:06:27;12.43;;;11.83;;
7587;SDS011;3835;48.850;8.938;2022-08-19T13:08:54;11.80;;;11.30;;
7587;SDS011;3835;48.850;8.938;2022-08-19T13:11:21;11.57;;;10.97;;
7587;SDS011;3835;48.850;8.938;2022-08-19T13:13:50;12.07;;;11.47;;
7587;SDS011;3835;48.850;8.938;2022-08-19T13:16:18;11.50;;;11.00;;
7587;SDS011;3835;48.850;8.938;2022-08-19T13:18:47;11.80;;;11.30;;
7587;SDS011;3835;48.850;8.938;2022-08-19T13:21:14;12.83;;;12.23;;
7587;SDS011;3835;48.850;8.938;2022-08-19T13:23:42;13.00;;;12.40;;
7587;SDS011;3835;48.850;8.938;2022-08-19T13:26:10;13.00;;;12.40;;
7587;SDS011;3835;48.850;8.938;2022-08-19T13:28:38;12.07;;;11.47;;
7587;SDS011;3835;48.850;8.938;2022-08-19T13:31:25;11.50;;;11.00;;
7587;SDS011;3835;48.850;8.938;2022-08-19T13:34:11;11.80;;;11.30;;
7587;SDS011;3835;48.850;8.938;2022-08-19T13:36:38;13.03;;;12.33;;
7587;SDS011;3835;48.850;8.938;2022-08-19T13:39:07;11.63;;;11.00;;
7587;SDS011;3835;48.850;8.938;2022-08-19T13:41:34;12.87;;;12.10;;
7587;SDS011;3835;48.850;8.938;2022-08-19T13:44:01;12.30;;;11.73;;
7587;SDS011;3835;48.850;8.938;2022-08-19T13:46:28;13.37;;;12.77;;
7587;SDS011;3835;48.850;8.938;2022-08-19T13:48:55;12.70;;;12.10;;
7587;SDS011;3835;48.850;8.938;2022-08-19T13:51:22;12.97;;;12.27;;
7587;SDS011;3835;48.850;8.938;2022-08-19T13:53:49;13.87;;;13.27;;
7587;SDS011;3835;48.850;8.938;2022-08-19T13:56:18;13.53;;;12.83;;
7587;SDS011;3835;48.850;8.938;2022-08-19T13:58:45;12.60;;;11.93;;
7587;SDS011;3835;48.850;8.938;2022-08-19T14:01:12;12.63;;;12.03;;
7587;SDS011;3835;48.850;8.938;2022-08-19T14:03:45;16.17;;;15.37;;
7587;SDS011;3835;48.850;8.938;2022-08-19T14:06:12;12.93;;;12.33;;
7587;SDS011;3835;48.850;8.938;2022-08-19T14:08:39;11.37;;;10.87;;
7587;SDS011;3835;48.850;8.938;2022-08-19T14:11:06;13.57;;;12.87;;
7587;SDS011;3835;48.850;8.938;2022-08-19T14:13:35;12.93;;;12.33;;
7587;SDS011;3835;48.850;8.938;2022-08-19T14:16:05;13.53;;;12.87;;
7587;SDS011;3835;48.850;8.938;2022-08-19T14:18:33;14.00;;;13.40;;
7587;SDS011;3835;48.850;8.938;2022-08-19T14:21:00;12.43;;;11.83;;
7587;SDS011;3835;48.850;8.938;2022-08-19T14:23:27;12.47;;;11.87;;
7587;SDS011;3835;48.850;8.938;2022-08-19T14:26:02;12.30;;;11.43;;
7587;SDS011;3835;48.850;8.938;2022-08-19T14:28:30;12.57;;;11.97;;
7587;SDS011;3835;48.850;8.938;2022-08-19T14:30:58;12.07;;;11.50;;
7587;SDS011;3835;48.850;8.938;2022-08-19T14:33:25;12.80;;;12.20;;
7587;SDS011;3835;48.850;8.938;2022-08-19T14:35:51;15.07;;;14.37;;
7587;SDS011;3835;48.850;8.938;2022-08-19T14:38:19;10.63;;;10.13;;
7587;SDS011;3835;48.850;8.938;2022-08-19T14:40:46;11.53;;;10.83;;
7587;SDS011;3835;48.850;8.938;2022-08-19T14:43:13;11.30;;;10.80;;
7587;SDS011;3835;48.850;8.938;2022-08-19T14:45:42;11.97;;;11.37;;
7587;SDS011;3835;48.850;8.938;2022-08-19T14:48:11;12.40;;;11.60;;
7587;SDS011;3835;48.850;8.938;2022-08-19T14:50:38;12.60;;;11.93;;
7587;SDS011;3835;48.850;8.938;2022-08-19T14:53:05;13.97;;;13.27;;
7587;SDS011;3835;48.850;8.938;2022-08-19T14:55:33;14.37;;;13.70;;
7587;SDS011;3835;48.850;8.938;2022-08-19T14:58:01;12.90;;;12.27;;
7587;SDS011;3835;48.850;8.938;2022-08-19T15:00:27;12.07;;;11.37;;
7587;SDS011;3835;48.850;8.938;2022-08-19T15:02:54;11.97;;;11.37;;